sensor_id;sensor_type;location;lat;lon;timestamp;temperature;humidity
51982;DHT22;37998;53.416;6.730;2024-02-26T00:01:44;4.70;99.90
51982;DHT22;37998;53.416;6.730;2024-02-26T00:04:11;4.70;99.90
51982;DHT22;37998;53.416;6.730;2024-02-26T00:06:38;4.60;99.90
51982;DHT22;37998;53.416;6.730;2024-02-26T00:09:10;4.60;99.90
51982;DHT22;37998;53.416;6.730;2024-02-26T00:11:36;4.60;99.90
51982;DHT22;37998;53.416;6.730;2024-02-26T00:14:03;4.60;99.90
51982;DHT22;37998;53.416;6.730;2024-02-26T00:16:29;4.60;99.90
51982;DHT22;37998;53.416;6.730;2024-02-26T00:18:55;4.80;99.90
51982;DHT22;37998;53.416;6.730;2024-02-26T00:21:21;4.60;99.90
51982;DHT22;37998;53.416;6.730;2024-02-26T00:23:49;4.60;99.90
51982;DHT22;37998;53.416;6.730;2024-02-26T00:26:14;4.60;99.90
51982;DHT22;37998;53.416;6.730;2024-02-26T00:28:41;4.80;99.90
51982;DHT22;37998;53.416;6.730;2024-02-26T00:31:07;4.60;99.90
51982;DHT22;37998;53.416;6.730;2024-02-26T00:33:33;4.60;99.90
51982;DHT22;37998;53.416;6.730;2024-02-26T00:35:58;4.60;99.90
51982;DHT22;37998;53.416;6.730;2024-02-26T00:38:24;4.60;99.90
51982;DHT22;37998;53.416;6.730;2024-02-26T00:40:50;4.60;99.90
51982;DHT22;37998;53.416;6.730;2024-02-26T00:43:16;4.70;99.90
51982;DHT22;37998;53.416;6.730;2024-02-26T00:45:42;4.70;99.90
51982;DHT22;37998;53.416;6.730;2024-02-26T00:48:08;4.70;99.90
51982;DHT22;37998;53.416;6.730;2024-02-26T00:50:34;4.70;99.90
51982;DHT22;37998;53.416;6.730;2024-02-26T00:53:01;4.70;99.90
51982;DHT22;37998;53.416;6.730;2024-02-26T00:55:27;4.70;99.90
51982;DHT22;37998;53.416;6.730;2024-02-26T00:57:53;4.70;99.90
51982;DHT22;37998;53.416;6.730;2024-02-26T01:00:19;4.70;99.90
51982;DHT22;37998;53.416;6.730;2024-02-26T01:02:45;4.70;99.90
51982;DHT22;37998;53.416;6.730;2024-02-26T01:05:14;4.80;99.90
51982;DHT22;37998;53.416;6.730;2024-02-26T01:07:42;4.80;99.90
51982;DHT22;37998;53.416;6.730;2024-02-26T01:10:08;4.80;99.90
51982;DHT22;37998;53.416;6.730;2024-02-26T01:12:34;4.70;99.90
51982;DHT22;37998;53.416;6.730;2024-02-26T01:15:03;4.80;99.90
51982;DHT22;37998;53.416;6.730;2024-02-26T01:17:30;4.70;99.90
51982;DHT22;37998;53.416;6.730;2024-02-26T01:19:56;4.70;99.90
51982;DHT22;37998;53.416;6.730;2024-02-26T01:22:22;4.70;99.90
51982;DHT22;37998;53.416;6.730;2024-02-26T01:24:48;4.70;99.90
51982;DHT22;37998;53.416;6.730;2024-02-26T01:27:14;4.70;99.90
51982;DHT22;37998;53.416;6.730;2024-02-26T01:29:41;4.70;99.90
51982;DHT22;37998;53.416;6.730;2024-02-26T01:32:07;4.70;99.90
51982;DHT22;37998;53.416;6.730;2024-02-26T01:34:33;4.70;99.90
51982;DHT22;37998;53.416;6.730;2024-02-26T01:37:00;4.70;99.90
51982;DHT22;37998;53.416;6.730;2024-02-26T01:39:26;4.70;99.90
51982;DHT22;37998;53.416;6.730;2024-02-26T01:41:54;4.60;99.90
51982;DHT22;37998;53.416;6.730;2024-02-26T01:44:21;4.70;99.90
51982;DHT22;37998;53.416;6.730;2024-02-26T01:46:47;4.70;99.90
51982;DHT22;37998;53.416;6.730;2024-02-26T01:49:14;4.70;99.90
51982;DHT22;37998;53.416;6.730;2024-02-26T01:51:42;4.60;99.90
51982;DHT22;37998;53.416;6.730;2024-02-26T01:54:09;4.60;99.90
51982;DHT22;37998;53.416;6.730;2024-02-26T01:56:36;4.60;99.90
51982;DHT22;37998;53.416;6.730;2024-02-26T01:59:04;4.60;99.90
51982;DHT22;37998;53.416;6.730;2024-02-26T02:01:32;4.70;99.90
51982;DHT22;37998;53.416;6.730;2024-02-26T02:03:59;4.70;99.90
51982;DHT22;37998;53.416;6.730;2024-02-26T02:06:26;4.60;99.90
51982;DHT22;37998;53.416;6.730;2024-02-26T02:08:54;4.60;99.90
51982;DHT22;37998;53.416;6.730;2024-02-26T02:11:21;4.60;99.90
51982;DHT22;37998;53.416;6.730;2024-02-26T02:13:47;4.60;99.90
51982;DHT22;37998;53.416;6.730;2024-02-26T02:16:13;4.60;99.90
51982;DHT22;37998;53.416;6.730;2024-02-26T02:18:39;4.60;99.90
51982;DHT22;37998;53.416;6.730;2024-02-26T02:21:05;4.50;99.90
51982;DHT22;37998;53.416;6.730;2024-02-26T02:23:31;4.50;99.90
51982;DHT22;37998;53.416;6.730;2024-02-26T02:25:58;4.50;99.90
51982;DHT22;37998;53.416;6.730;2024-02-26T02:28:26;4.50;99.90
51982;DHT22;37998;53.416;6.730;2024-02-26T02:30:52;4.60;99.90
51982;DHT22;37998;53.416;6.730;2024-02-26T02:33:19;4.70;99.90
51982;DHT22;37998;53.416;6.730;2024-02-26T02:35:46;4.50;99.90
51982;DHT22;37998;53.416;6.730;2024-02-26T02:38:12;4.50;99.90
51982;DHT22;37998;53.416;6.730;2024-02-26T02:40:37;4.50;99.90
51982;DHT22;37998;53.416;6.730;2024-02-26T02:43:03;4.50;99.90
51982;DHT22;37998;53.416;6.730;2024-02-26T02:45:30;4.50;99.90
51982;DHT22;37998;53.416;6.730;2024-02-26T02:47:56;4.50;99.90
51982;DHT22;37998;53.416;6.730;2024-02-26T02:50:22;4.20;99.90
51982;DHT22;37998;53.416;6.730;2024-02-26T02:52:48;4.40;99.90
51982;DHT22;37998;53.416;6.730;2024-02-26T02:55:16;4.40;99.90
51982;DHT22;37998;53.416;6.730;2024-02-26T02:57:42;4.40;99.90
51982;DHT22;37998;53.416;6.730;2024-02-26T03:00:11;4.40;99.90
51982;DHT22;37998;53.416;6.730;2024-02-26T03:02:37;4.50;99.90
51982;DHT22;37998;53.416;6.730;2024-02-26T03:05:04;4.40;99.90
51982;DHT22;37998;53.416;6.730;2024-02-26T03:07:30;4.40;99.90
51982;DHT22;37998;53.416;6.730;2024-02-26T03:09:56;4.40;99.90
51982;DHT22;37998;53.416;6.730;2024-02-26T03:12:22;4.40;99.90
51982;DHT22;37998;53.416;6.730;2024-02-26T03:14:48;4.40;99.90
51982;DHT22;37998;53.416;6.730;2024-02-26T03:17:14;4.40;99.90
51982;DHT22;37998;53.416;6.730;2024-02-26T03:19:40;4.40;99.90
51982;DHT22;37998;53.416;6.730;2024-02-26T03:22:07;4.40;99.90
51982;DHT22;37998;53.416;6.730;2024-02-26T03:24:33;4.40;99.90
51982;DHT22;37998;53.416;6.730;2024-02-26T03:26:59;4.40;99.90
51982;DHT22;37998;53.416;6.730;2024-02-26T03:29:25;4.40;99.90
51982;DHT22;37998;53.416;6.730;2024-02-26T03:31:50;4.30;99.90
51982;DHT22;37998;53.416;6.730;2024-02-26T03:34:16;4.30;99.90
51982;DHT22;37998;53.416;6.730;2024-02-26T03:36:44;4.40;99.90
51982;DHT22;37998;53.416;6.730;2024-02-26T03:39:10;4.40;99.90
51982;DHT22;37998;53.416;6.730;2024-02-26T03:41:36;4.40;99.90
51982;DHT22;37998;53.416;6.730;2024-02-26T03:44:02;4.40;99.90
51982;DHT22;37998;53.416;6.730;2024-02-26T03:46:28;4.40;99.90
51982;DHT22;37998;53.416;6.730;2024-02-26T03:48:54;4.40;99.90
51982;DHT22;37998;53.416;6.730;2024-02-26T03:51:20;4.40;99.90
51982;DHT22;37998;53.416;6.730;2024-02-26T03:53:46;4.40;99.90
51982;DHT22;37998;53.416;6.730;2024-02-26T03:56:12;4.40;99.90
51982;DHT22;37998;53.416;6.730;2024-02-26T03:58:39;4.40;99.90
51982;DHT22;37998;53.416;6.730;2024-02-26T04:01:07;4.40;99.90
51982;DHT22;37998;53.416;6.730;2024-02-26T04:03:33;4.40;99.90
51982;DHT22;37998;53.416;6.730;2024-02-26T04:06:00;4.40;99.90
51982;DHT22;37998;53.416;6.730;2024-02-26T04:08:26;4.40;99.90
51982;DHT22;37998;53.416;6.730;2024-02-26T04:10:52;4.40;99.90
51982;DHT22;37998;53.416;6.730;2024-02-26T04:13:18;4.40;99.90
51982;DHT22;37998;53.416;6.730;2024-02-26T04:15:44;4.40;99.90
51982;DHT22;37998;53.416;6.730;2024-02-26T04:18:10;4.40;99.90
51982;DHT22;37998;53.416;6.730;2024-02-26T04:20:36;4.40;99.90
51982;DHT22;37998;53.416;6.730;2024-02-26T04:23:03;4.50;99.90
51982;DHT22;37998;53.416;6.730;2024-02-26T04:25:29;4.50;99.90
51982;DHT22;37998;53.416;6.730;2024-02-26T04:27:55;4.50;99.90
51982;DHT22;37998;53.416;6.730;2024-02-26T04:30:21;4.50;99.90
51982;DHT22;37998;53.416;6.730;2024-02-26T04:32:46;4.50;99.90
51982;DHT22;37998;53.416;6.730;2024-02-26T04:35:12;4.60;99.90
51982;DHT22;37998;53.416;6.730;2024-02-26T04:37:38;4.50;99.90
51982;DHT22;37998;53.416;6.730;2024-02-26T04:40:05;4.60;99.90
51982;DHT22;37998;53.416;6.730;2024-02-26T04:42:31;4.60;99.90
51982;DHT22;37998;53.416;6.730;2024-02-26T04:44:57;4.60;99.90
51982;DHT22;37998;53.416;6.730;2024-02-26T04:47:23;4.60;99.90
51982;DHT22;37998;53.416;6.730;2024-02-26T04:49:52;4.60;99.90
51982;DHT22;37998;53.416;6.730;2024-02-26T04:52:19;4.60;99.90
51982;DHT22;37998;53.416;6.730;2024-02-26T04:54:45;4.60;99.90
51982;DHT22;37998;53.416;6.730;2024-02-26T04:57:10;4.80;99.90
51982;DHT22;37998;53.416;6.730;2024-02-26T04:59:36;4.60;99.90
51982;DHT22;37998;53.416;6.730;2024-02-26T05:02:03;4.70;99.90
51982;DHT22;37998;53.416;6.730;2024-02-26T05:04:29;4.60;99.90
51982;DHT22;37998;53.416;6.730;2024-02-26T05:06:55;4.60;99.90
51982;DHT22;37998;53.416;6.730;2024-02-26T05:09:21;4.60;99.90
51982;DHT22;37998;53.416;6.730;2024-02-26T05:11:46;4.50;99.90
51982;DHT22;37998;53.416;6.730;2024-02-26T05:14:12;4.60;99.90
51982;DHT22;37998;53.416;6.730;2024-02-26T05:16:38;4.60;99.90
51982;DHT22;37998;53.416;6.730;2024-02-26T05:19:04;4.60;99.90
51982;DHT22;37998;53.416;6.730;2024-02-26T05:21:31;4.60;99.90
51982;DHT22;37998;53.416;6.730;2024-02-26T05:23:57;4.60;99.90
51982;DHT22;37998;53.416;6.730;2024-02-26T05:26:23;4.60;99.90
51982;DHT22;37998;53.416;6.730;2024-02-26T05:28:49;4.60;99.90
51982;DHT22;37998;53.416;6.730;2024-02-26T05:31:16;4.50;99.90
51982;DHT22;37998;53.416;6.730;2024-02-26T05:33:42;4.50;99.90
51982;DHT22;37998;53.416;6.730;2024-02-26T05:36:08;4.60;99.90
51982;DHT22;37998;53.416;6.730;2024-02-26T05:38:34;4.60;99.90
51982;DHT22;37998;53.416;6.730;2024-02-26T05:41:00;4.60;99.90
51982;DHT22;37998;53.416;6.730;2024-02-26T05:43:26;4.50;99.90
51982;DHT22;37998;53.416;6.730;2024-02-26T05:45:53;4.60;99.90
51982;DHT22;37998;53.416;6.730;2024-02-26T05:48:19;4.60;99.90
51982;DHT22;37998;53.416;6.730;2024-02-26T05:50:46;4.60;99.90
51982;DHT22;37998;53.416;6.730;2024-02-26T05:53:12;4.60;99.90
51982;DHT22;37998;53.416;6.730;2024-02-26T05:55:38;4.60;99.90
51982;DHT22;37998;53.416;6.730;2024-02-26T05:58:04;4.60;99.90
51982;DHT22;37998;53.416;6.730;2024-02-26T06:00:30;4.60;99.90
51982;DHT22;37998;53.416;6.730;2024-02-26T06:02:56;4.60;99.90
51982;DHT22;37998;53.416;6.730;2024-02-26T06:05:22;4.60;99.90
51982;DHT22;37998;53.416;6.730;2024-02-26T06:07:48;4.60;99.90
51982;DHT22;37998;53.416;6.730;2024-02-26T06:10:14;4.60;99.90
51982;DHT22;37998;53.416;6.730;2024-02-26T06:12:40;4.60;99.90
51982;DHT22;37998;53.416;6.730;2024-02-26T06:15:07;4.60;99.90
51982;DHT22;37998;53.416;6.730;2024-02-26T06:17:33;4.60;99.90
51982;DHT22;37998;53.416;6.730;2024-02-26T06:19:59;4.60;99.90
51982;DHT22;37998;53.416;6.730;2024-02-26T06:22:26;4.50;99.90
51982;DHT22;37998;53.416;6.730;2024-02-26T06:24:52;4.50;99.90
51982;DHT22;37998;53.416;6.730;2024-02-26T06:27:18;4.60;99.90
51982;DHT22;37998;53.416;6.730;2024-02-26T06:29:44;4.50;99.90
51982;DHT22;37998;53.416;6.730;2024-02-26T06:32:09;4.60;99.90
51982;DHT22;37998;53.416;6.730;2024-02-26T06:34:35;4.50;99.90
51982;DHT22;37998;53.416;6.730;2024-02-26T06:37:01;4.50;99.90
51982;DHT22;37998;53.416;6.730;2024-02-26T06:39:29;4.50;99.90
51982;DHT22;37998;53.416;6.730;2024-02-26T06:41:55;4.50;99.90
51982;DHT22;37998;53.416;6.730;2024-02-26T06:44:27;4.60;99.90
51982;DHT22;37998;53.416;6.730;2024-02-26T06:46:58;4.50;99.90
51982;DHT22;37998;53.416;6.730;2024-02-26T06:49:25;4.50;99.90
51982;DHT22;37998;53.416;6.730;2024-02-26T06:51:51;4.50;99.90
51982;DHT22;37998;53.416;6.730;2024-02-26T06:54:17;4.50;99.90
51982;DHT22;37998;53.416;6.730;2024-02-26T06:56:42;4.50;99.90
51982;DHT22;37998;53.416;6.730;2024-02-26T06:59:08;4.50;99.90
51982;DHT22;37998;53.416;6.730;2024-02-26T07:01:34;4.50;99.90
51982;DHT22;37998;53.416;6.730;2024-02-26T07:04:00;4.50;99.90
51982;DHT22;37998;53.416;6.730;2024-02-26T07:06:27;4.50;99.90
51982;DHT22;37998;53.416;6.730;2024-02-26T07:08:53;4.50;99.90
51982;DHT22;37998;53.416;6.730;2024-02-26T07:11:19;4.50;99.90
51982;DHT22;37998;53.416;6.730;2024-02-26T07:13:46;4.50;99.90
51982;DHT22;37998;53.416;6.730;2024-02-26T07:16:12;4.50;99.90
51982;DHT22;37998;53.416;6.730;2024-02-26T07:18:41;4.50;99.90
51982;DHT22;37998;53.416;6.730;2024-02-26T07:21:09;4.50;99.90
51982;DHT22;37998;53.416;6.730;2024-02-26T07:23:35;4.60;99.90
51982;DHT22;37998;53.416;6.730;2024-02-26T07:26:01;4.50;99.90
51982;DHT22;37998;53.416;6.730;2024-02-26T07:28:27;4.60;99.90
51982;DHT22;37998;53.416;6.730;2024-02-26T07:30:52;4.60;99.90
51982;DHT22;37998;53.416;6.730;2024-02-26T07:33:18;4.60;99.90
51982;DHT22;37998;53.416;6.730;2024-02-26T07:35:44;4.60;99.90
51982;DHT22;37998;53.416;6.730;2024-02-26T07:38:10;4.60;99.90
51982;DHT22;37998;53.416;6.730;2024-02-26T07:40:36;4.60;99.90
51982;DHT22;37998;53.416;6.730;2024-02-26T07:43:02;4.60;99.90
51982;DHT22;37998;53.416;6.730;2024-02-26T07:45:28;4.60;99.90
51982;DHT22;37998;53.416;6.730;2024-02-26T07:47:54;4.60;99.90
51982;DHT22;37998;53.416;6.730;2024-02-26T07:50:20;4.60;99.90
51982;DHT22;37998;53.416;6.730;2024-02-26T07:52:46;4.70;99.90
51982;DHT22;37998;53.416;6.730;2024-02-26T07:55:12;4.60;99.90
51982;DHT22;37998;53.416;6.730;2024-02-26T07:57:42;4.70;99.90
51982;DHT22;37998;53.416;6.730;2024-02-26T08:00:08;4.70;99.90
51982;DHT22;37998;53.416;6.730;2024-02-26T08:02:36;4.70;99.90
51982;DHT22;37998;53.416;6.730;2024-02-26T08:05:02;4.70;99.90
51982;DHT22;37998;53.416;6.730;2024-02-26T08:07:28;4.70;99.90
51982;DHT22;37998;53.416;6.730;2024-02-26T08:09:54;4.70;99.90
51982;DHT22;37998;53.416;6.730;2024-02-26T08:12:20;4.80;99.90
51982;DHT22;37998;53.416;6.730;2024-02-26T08:14:46;4.90;99.90
51982;DHT22;37998;53.416;6.730;2024-02-26T08:17:12;4.90;99.90
51982;DHT22;37998;53.416;6.730;2024-02-26T08:19:38;4.90;99.90
51982;DHT22;37998;53.416;6.730;2024-02-26T08:22:04;4.90;99.90
51982;DHT22;37998;53.416;6.730;2024-02-26T08:24:30;4.90;99.90
51982;DHT22;37998;53.416;6.730;2024-02-26T08:26:56;4.90;99.90
51982;DHT22;37998;53.416;6.730;2024-02-26T08:29:22;4.90;99.90
51982;DHT22;37998;53.416;6.730;2024-02-26T08:31:48;4.90;99.90
51982;DHT22;37998;53.416;6.730;2024-02-26T08:34:14;4.90;99.90
51982;DHT22;37998;53.416;6.730;2024-02-26T08:36:40;4.90;99.90
51982;DHT22;37998;53.416;6.730;2024-02-26T08:39:06;4.80;99.90
51982;DHT22;37998;53.416;6.730;2024-02-26T08:41:34;4.80;99.90
51982;DHT22;37998;53.416;6.730;2024-02-26T08:44:00;4.80;99.90
51982;DHT22;37998;53.416;6.730;2024-02-26T08:46:26;4.90;99.90
51982;DHT22;37998;53.416;6.730;2024-02-26T08:48:52;4.90;99.90
51982;DHT22;37998;53.416;6.730;2024-02-26T08:51:17;4.90;99.90
51982;DHT22;37998;53.416;6.730;2024-02-26T08:53:46;4.50;99.90
51982;DHT22;37998;53.416;6.730;2024-02-26T08:56:12;4.90;99.90
51982;DHT22;37998;53.416;6.730;2024-02-26T08:58:43;5.00;99.90
51982;DHT22;37998;53.416;6.730;2024-02-26T09:01:09;5.00;99.90
51982;DHT22;37998;53.416;6.730;2024-02-26T09:03:35;5.10;99.90
51982;DHT22;37998;53.416;6.730;2024-02-26T09:06:01;5.10;99.90
51982;DHT22;37998;53.416;6.730;2024-02-26T09:08:27;5.10;99.90
51982;DHT22;37998;53.416;6.730;2024-02-26T09:10:53;5.20;99.90
51982;DHT22;37998;53.416;6.730;2024-02-26T09:13:22;5.20;99.90
51982;DHT22;37998;53.416;6.730;2024-02-26T09:15:49;5.20;99.90
51982;DHT22;37998;53.416;6.730;2024-02-26T09:18:14;5.20;99.90
51982;DHT22;37998;53.416;6.730;2024-02-26T09:20:41;5.30;99.90
51982;DHT22;37998;53.416;6.730;2024-02-26T09:23:07;5.20;99.90
51982;DHT22;37998;53.416;6.730;2024-02-26T09:25:33;5.30;99.90
51982;DHT22;37998;53.416;6.730;2024-02-26T09:28:02;5.30;99.90
51982;DHT22;37998;53.416;6.730;2024-02-26T09:30:28;5.30;99.90
51982;DHT22;37998;53.416;6.730;2024-02-26T09:32:53;5.30;99.90
51982;DHT22;37998;53.416;6.730;2024-02-26T09:35:19;5.30;99.90
51982;DHT22;37998;53.416;6.730;2024-02-26T09:37:47;5.40;99.90
51982;DHT22;37998;53.416;6.730;2024-02-26T09:40:14;5.40;99.90
51982;DHT22;37998;53.416;6.730;2024-02-26T09:42:44;5.30;99.90
51982;DHT22;37998;53.416;6.730;2024-02-26T09:45:22;5.40;99.90
51982;DHT22;37998;53.416;6.730;2024-02-26T09:47:48;5.40;99.90
51982;DHT22;37998;53.416;6.730;2024-02-26T09:50:17;5.40;99.90
51982;DHT22;37998;53.416;6.730;2024-02-26T09:52:43;5.40;99.90
51982;DHT22;37998;53.416;6.730;2024-02-26T09:55:10;5.40;99.90
51982;DHT22;37998;53.416;6.730;2024-02-26T09:57:51;5.40;99.90
51982;DHT22;37998;53.416;6.730;2024-02-26T10:00:21;5.40;99.90
51982;DHT22;37998;53.416;6.730;2024-02-26T10:02:48;5.40;99.90
51982;DHT22;37998;53.416;6.730;2024-02-26T10:05:18;5.40;99.90
51982;DHT22;37998;53.416;6.730;2024-02-26T10:07:45;5.40;99.90
51982;DHT22;37998;53.416;6.730;2024-02-26T10:10:13;5.30;99.90
51982;DHT22;37998;53.416;6.730;2024-02-26T10:12:39;5.30;99.90
51982;DHT22;37998;53.416;6.730;2024-02-26T10:15:05;5.30;99.90
51982;DHT22;37998;53.416;6.730;2024-02-26T10:17:31;5.30;99.90
51982;DHT22;37998;53.416;6.730;2024-02-26T10:20:15;5.30;99.90
51982;DHT22;37998;53.416;6.730;2024-02-26T10:22:41;5.40;99.90
51982;DHT22;37998;53.416;6.730;2024-02-26T10:25:08;5.40;99.90
51982;DHT22;37998;53.416;6.730;2024-02-26T10:27:34;5.40;99.90
51982;DHT22;37998;53.416;6.730;2024-02-26T10:30:12;5.40;99.90
51982;DHT22;37998;53.416;6.730;2024-02-26T10:32:41;5.40;99.90
51982;DHT22;37998;53.416;6.730;2024-02-26T10:35:10;5.40;99.90
51982;DHT22;37998;53.416;6.730;2024-02-26T10:37:36;5.40;99.90
51982;DHT22;37998;53.416;6.730;2024-02-26T10:40:02;5.40;99.90
51982;DHT22;37998;53.416;6.730;2024-02-26T10:42:30;5.40;99.90
51982;DHT22;37998;53.416;6.730;2024-02-26T10:44:58;5.50;99.90
51982;DHT22;37998;53.416;6.730;2024-02-26T10:47:24;5.50;99.90
51982;DHT22;37998;53.416;6.730;2024-02-26T10:49:50;5.50;99.90
51982;DHT22;37998;53.416;6.730;2024-02-26T10:52:19;5.50;99.90
51982;DHT22;37998;53.416;6.730;2024-02-26T10:54:47;5.50;99.90
51982;DHT22;37998;53.416;6.730;2024-02-26T10:57:15;5.50;99.90
51982;DHT22;37998;53.416;6.730;2024-02-26T10:59:42;5.50;99.90
51982;DHT22;37998;53.416;6.730;2024-02-26T11:02:10;5.50;99.90
51982;DHT22;37998;53.416;6.730;2024-02-26T11:04:37;5.50;99.90
51982;DHT22;37998;53.416;6.730;2024-02-26T11:07:04;5.50;99.90
51982;DHT22;37998;53.416;6.730;2024-02-26T11:09:32;5.50;99.90
51982;DHT22;37998;53.416;6.730;2024-02-26T11:11:59;5.50;99.90
51982;DHT22;37998;53.416;6.730;2024-02-26T11:14:26;5.50;99.90
51982;DHT22;37998;53.416;6.730;2024-02-26T11:16:52;5.60;99.90
51982;DHT22;37998;53.416;6.730;2024-02-26T11:19:20;5.60;99.90
51982;DHT22;37998;53.416;6.730;2024-02-26T11:21:47;5.60;99.90
51982;DHT22;37998;53.416;6.730;2024-02-26T11:24:15;5.60;99.90
51982;DHT22;37998;53.416;6.730;2024-02-26T11:26:53;5.60;99.90
51982;DHT22;37998;53.416;6.730;2024-02-26T11:29:32;5.60;99.90
51982;DHT22;37998;53.416;6.730;2024-02-26T11:32:00;5.60;99.90
51982;DHT22;37998;53.416;6.730;2024-02-26T11:34:26;5.50;99.90
51982;DHT22;37998;53.416;6.730;2024-02-26T11:36:53;5.50;99.90
51982;DHT22;37998;53.416;6.730;2024-02-26T11:39:20;5.50;99.90
51982;DHT22;37998;53.416;6.730;2024-02-26T11:41:46;5.50;99.90
51982;DHT22;37998;53.416;6.730;2024-02-26T11:44:12;5.50;99.90
51982;DHT22;37998;53.416;6.730;2024-02-26T11:46:40;5.50;99.90
51982;DHT22;37998;53.416;6.730;2024-02-26T11:51:55;5.50;99.90
51982;DHT22;37998;53.416;6.730;2024-02-26T11:54:57;5.40;99.90
51982;DHT22;37998;53.416;6.730;2024-02-26T11:57:39;5.50;99.90
51982;DHT22;37998;53.416;6.730;2024-02-26T12:00:14;5.50;99.90
51982;DHT22;37998;53.416;6.730;2024-02-26T12:05:24;5.50;99.90
51982;DHT22;37998;53.416;6.730;2024-02-26T12:08:03;5.50;99.90
51982;DHT22;37998;53.416;6.730;2024-02-26T12:10:34;5.50;99.90
51982;DHT22;37998;53.416;6.730;2024-02-26T12:13:16;5.40;99.90
51982;DHT22;37998;53.416;6.730;2024-02-26T12:15:44;5.40;99.90
51982;DHT22;37998;53.416;6.730;2024-02-26T12:18:17;5.40;99.90
51982;DHT22;37998;53.416;6.730;2024-02-26T12:20:43;5.50;99.90
51982;DHT22;37998;53.416;6.730;2024-02-26T12:23:16;5.50;99.90
51982;DHT22;37998;53.416;6.730;2024-02-26T12:25:45;5.50;99.90
51982;DHT22;37998;53.416;6.730;2024-02-26T12:28:14;5.40;99.90
51982;DHT22;37998;53.416;6.730;2024-02-26T12:30:40;5.40;99.90
51982;DHT22;37998;53.416;6.730;2024-02-26T12:33:07;5.50;99.90
51982;DHT22;37998;53.416;6.730;2024-02-26T12:35:35;5.50;99.90
51982;DHT22;37998;53.416;6.730;2024-02-26T12:38:01;5.50;99.90
51982;DHT22;37998;53.416;6.730;2024-02-26T12:40:29;5.50;99.90
51982;DHT22;37998;53.416;6.730;2024-02-26T12:42:55;5.50;99.90
51982;DHT22;37998;53.416;6.730;2024-02-26T12:45:22;5.60;99.90
51982;DHT22;37998;53.416;6.730;2024-02-26T12:47:47;5.60;99.90
51982;DHT22;37998;53.416;6.730;2024-02-26T12:50:15;5.60;99.90
51982;DHT22;37998;53.416;6.730;2024-02-26T12:52:43;5.60;99.90
51982;DHT22;37998;53.416;6.730;2024-02-26T12:55:13;5.60;99.90
51982;DHT22;37998;53.416;6.730;2024-02-26T12:57:41;5.60;99.90
51982;DHT22;37998;53.416;6.730;2024-02-26T13:00:15;5.60;99.90
51982;DHT22;37998;53.416;6.730;2024-02-26T13:02:41;5.60;99.90
51982;DHT22;37998;53.416;6.730;2024-02-26T13:05:14;5.70;99.90
51982;DHT22;37998;53.416;6.730;2024-02-26T13:07:44;5.60;99.90
51982;DHT22;37998;53.416;6.730;2024-02-26T13:10:13;5.60;99.90
51982;DHT22;37998;53.416;6.730;2024-02-26T13:12:44;5.60;99.90
51982;DHT22;37998;53.416;6.730;2024-02-26T13:15:15;5.60;99.90
51982;DHT22;37998;53.416;6.730;2024-02-26T13:17:41;5.60;99.90
51982;DHT22;37998;53.416;6.730;2024-02-26T13:20:08;5.60;99.90
51982;DHT22;37998;53.416;6.730;2024-02-26T13:22:36;5.50;99.90
51982;DHT22;37998;53.416;6.730;2024-02-26T13:25:02;5.50;99.90
51982;DHT22;37998;53.416;6.730;2024-02-26T13:27:29;5.50;99.90
51982;DHT22;37998;53.416;6.730;2024-02-26T13:30:11;5.50;99.90
51982;DHT22;37998;53.416;6.730;2024-02-26T13:32:39;5.50;99.90
51982;DHT22;37998;53.416;6.730;2024-02-26T13:37:32;5.40;99.90
51982;DHT22;37998;53.416;6.730;2024-02-26T13:39:58;5.50;99.90
51982;DHT22;37998;53.416;6.730;2024-02-26T13:42:23;5.40;99.90
51982;DHT22;37998;53.416;6.730;2024-02-26T13:44:49;5.50;99.90
51982;DHT22;37998;53.416;6.730;2024-02-26T13:47:15;5.50;99.90
51982;DHT22;37998;53.416;6.730;2024-02-26T13:49:41;5.40;99.90
51982;DHT22;37998;53.416;6.730;2024-02-26T13:52:07;5.50;99.90
51982;DHT22;37998;53.416;6.730;2024-02-26T13:54:33;5.40;99.90
51982;DHT22;37998;53.416;6.730;2024-02-26T13:56:59;5.50;99.90
51982;DHT22;37998;53.416;6.730;2024-02-26T13:59:25;5.40;99.90
51982;DHT22;37998;53.416;6.730;2024-02-26T14:01:51;5.50;99.90
51982;DHT22;37998;53.416;6.730;2024-02-26T14:04:18;5.50;99.90
51982;DHT22;37998;53.416;6.730;2024-02-26T14:06:44;5.50;99.90
51982;DHT22;37998;53.416;6.730;2024-02-26T14:09:10;5.60;99.90
51982;DHT22;37998;53.416;6.730;2024-02-26T14:11:36;5.50;99.90
51982;DHT22;37998;53.416;6.730;2024-02-26T14:14:02;5.50;99.90
51982;DHT22;37998;53.416;6.730;2024-02-26T14:16:28;5.50;99.90
51982;DHT22;37998;53.416;6.730;2024-02-26T14:18:54;5.50;99.90
51982;DHT22;37998;53.416;6.730;2024-02-26T14:21:19;5.50;99.90
51982;DHT22;37998;53.416;6.730;2024-02-26T14:23:46;5.60;99.90
51982;DHT22;37998;53.416;6.730;2024-02-26T14:26:12;5.50;99.90
51982;DHT22;37998;53.416;6.730;2024-02-26T14:28:38;5.50;99.90
51982;DHT22;37998;53.416;6.730;2024-02-26T14:31:06;5.50;99.90
51982;DHT22;37998;53.416;6.730;2024-02-26T14:33:32;5.50;99.90
51982;DHT22;37998;53.416;6.730;2024-02-26T14:35:58;5.50;99.90
51982;DHT22;37998;53.416;6.730;2024-02-26T14:38:24;5.50;99.90
51982;DHT22;37998;53.416;6.730;2024-02-26T14:40:50;5.60;99.90
51982;DHT22;37998;53.416;6.730;2024-02-26T14:43:16;5.50;99.90
51982;DHT22;37998;53.416;6.730;2024-02-26T14:45:42;5.60;99.90
51982;DHT22;37998;53.416;6.730;2024-02-26T14:48:09;5.60;99.90
51982;DHT22;37998;53.416;6.730;2024-02-26T14:50:36;5.60;99.90
51982;DHT22;37998;53.416;6.730;2024-02-26T14:53:02;5.60;99.90
51982;DHT22;37998;53.416;6.730;2024-02-26T14:55:28;5.60;99.90
51982;DHT22;37998;53.416;6.730;2024-02-26T14:57:54;5.60;99.90
51982;DHT22;37998;53.416;6.730;2024-02-26T15:00:20;5.60;99.90
51982;DHT22;37998;53.416;6.730;2024-02-26T15:02:45;5.50;99.90
51982;DHT22;37998;53.416;6.730;2024-02-26T15:05:12;5.60;99.90
51982;DHT22;37998;53.416;6.730;2024-02-26T15:07:38;5.60;99.90
51982;DHT22;37998;53.416;6.730;2024-02-26T15:10:06;5.60;99.90
51982;DHT22;37998;53.416;6.730;2024-02-26T15:12:33;5.60;99.90
51982;DHT22;37998;53.416;6.730;2024-02-26T15:14:59;5.60;99.90
51982;DHT22;37998;53.416;6.730;2024-02-26T15:17:27;5.60;99.90
51982;DHT22;37998;53.416;6.730;2024-02-26T15:19:58;5.60;99.90
51982;DHT22;37998;53.416;6.730;2024-02-26T15:22:25;5.50;99.90
51982;DHT22;37998;53.416;6.730;2024-02-26T15:24:52;5.50;99.90
51982;DHT22;37998;53.416;6.730;2024-02-26T15:27:18;5.50;99.90
51982;DHT22;37998;53.416;6.730;2024-02-26T15:29:43;5.50;99.90
51982;DHT22;37998;53.416;6.730;2024-02-26T15:32:10;5.50;99.90
51982;DHT22;37998;53.416;6.730;2024-02-26T15:34:36;5.50;99.90
51982;DHT22;37998;53.416;6.730;2024-02-26T15:37:02;5.60;99.90
51982;DHT22;37998;53.416;6.730;2024-02-26T15:39:28;5.50;99.90
51982;DHT22;37998;53.416;6.730;2024-02-26T15:41:54;5.50;99.90
51982;DHT22;37998;53.416;6.730;2024-02-26T15:44:20;5.50;99.90
51982;DHT22;37998;53.416;6.730;2024-02-26T15:46:46;5.50;99.90
51982;DHT22;37998;53.416;6.730;2024-02-26T15:49:12;5.50;99.90
51982;DHT22;37998;53.416;6.730;2024-02-26T15:51:38;5.50;99.90